createdAt,value
2023-10-10T00:01:47.669Z,15.37
2023-10-10T00:06:51.086Z,16.32
2023-10-10T00:11:54.623Z,16.04
2023-10-10T00:16:56.805Z,16.00
2023-10-10T00:21:59.033Z,16.66
2023-10-10T00:27:15.320Z,15.81
2023-10-10T00:32:24.136Z,15.41
2023-10-10T00:37:35.757Z,15.82
2023-10-10T00:42:43.572Z,15.90
2023-10-10T00:47:51.785Z,15.12
2023-10-10T00:52:57.156Z,16.13
2023-10-10T00:58:00.292Z,15.52
2023-10-10T01:03:21.309Z,14.55
2023-10-10T01:08:32.678Z,15.89
2023-10-10T01:13:35.073Z,14.34
2023-10-10T01:18:43.160Z,15.33
2023-10-10T01:23:46.434Z,15.57
2023-10-10T01:28:51.277Z,15.00
2023-10-10T01:33:52.885Z,15.27
2023-10-10T01:38:57.878Z,14.93
2023-10-10T01:44:11.861Z,15.45
2023-10-10T01:49:15.240Z,16.84
2023-10-10T01:54:19.947Z,16.43
2023-10-10T01:59:25.737Z,16.81
2023-10-10T02:04:30.375Z,15.07
2023-10-10T02:09:35.414Z,14.80
2023-10-10T02:14:37.687Z,14.59
2023-10-10T02:19:42.347Z,15.25
2023-10-10T02:24:50.120Z,15.07
2023-10-10T02:29:54.767Z,15.21
2023-10-10T02:35:27.786Z,15.45
2023-10-10T02:40:32.638Z,14.81
2023-10-10T02:45:37.046Z,14.02
2023-10-10T02:50:41.981Z,15.39
2023-10-10T02:55:51.800Z,14.98
2023-10-10T03:00:58.727Z,14.75
2023-10-10T03:06:07.485Z,14.70
2023-10-10T03:11:37.240Z,14.64
2023-10-10T03:16:46.992Z,14.43
2023-10-10T03:21:48.628Z,14.67
2023-10-10T03:26:51.069Z,14.81
2023-10-10T03:32:11.256Z,14.35
2023-10-10T03:37:42.759Z,14.38
2023-10-10T03:43:02.949Z,14.02
2023-10-10T03:48:23.842Z,14.80
2023-10-10T03:53:43.993Z,14.27
2023-10-10T03:59:04.114Z,13.97
2023-10-10T04:04:24.615Z,13.40
2023-10-10T04:09:45.226Z,14.13
2023-10-10T04:15:05.417Z,14.49
2023-10-10T04:20:26.215Z,15.06
2023-10-10T04:25:46.786Z,15.34
2023-10-10T04:31:06.957Z,16.09
2023-10-10T04:36:27.095Z,16.43
2023-10-10T04:41:47.533Z,16.71
2023-10-10T04:47:07.530Z,15.82
2023-10-10T04:52:27.523Z,14.73
2023-10-10T04:57:47.689Z,14.23
2023-10-10T05:03:08.018Z,14.92
2023-10-10T05:08:27.950Z,13.94
2023-10-10T05:13:48.470Z,13.64
2023-10-10T05:19:08.689Z,14.04
2023-10-10T05:24:10.640Z,13.31
2023-10-10T05:29:12.265Z,13.80
2023-10-10T05:34:16.466Z,13.93
2023-10-10T05:39:22.634Z,13.99
2023-10-10T05:44:24.834Z,14.06
2023-10-10T05:49:31.384Z,14.12
2023-10-10T05:54:33.606Z,14.02
2023-10-10T05:59:35.348Z,14.32
2023-10-10T06:04:37.338Z,12.57
2023-10-10T06:09:42.529Z,13.41
2023-10-10T06:14:44.354Z,13.08
2023-10-10T06:19:47.362Z,12.45
2023-10-10T06:24:49.054Z,11.68
2023-10-10T06:29:50.685Z,12.91
2023-10-10T06:35:05.735Z,13.38
2023-10-10T06:40:09.928Z,13.02
2023-10-10T06:45:12.829Z,13.06
2023-10-10T06:50:14.565Z,13.65
2023-10-10T06:55:22.779Z,13.66
2023-10-10T07:00:33.656Z,14.79
2023-10-10T07:05:35.722Z,15.07
2023-10-10T07:10:38.036Z,14.25
2023-10-10T07:15:41.681Z,14.07
2023-10-10T07:21:03.808Z,14.78
2023-10-10T07:26:26.102Z,14.53
2023-10-10T07:31:35.620Z,15.30
2023-10-10T07:36:37.951Z,15.20
2023-10-10T07:41:46.082Z,14.07
2023-10-10T07:47:06.445Z,15.99
2023-10-10T07:52:17.204Z,15.62
2023-10-10T07:57:29.606Z,16.06
2023-10-10T08:02:34.240Z,15.44
2023-10-10T08:07:36.384Z,14.77
2023-10-10T08:12:38.809Z,15.94
2023-10-10T08:17:52.768Z,15.92
2023-10-10T08:23:00.073Z,15.96
2023-10-10T08:28:01.900Z,15.61
2023-10-10T08:33:04.789Z,15.90
2023-10-10T08:38:07.244Z,16.35
2023-10-10T08:43:10.355Z,16.18
2023-10-10T08:48:17.113Z,17.31
2023-10-10T08:53:21.884Z,16.29
2023-10-10T08:58:24.176Z,17.10
2023-10-10T09:03:27.783Z,17.09
2023-10-10T09:08:29.692Z,17.63
2023-10-10T09:13:33.146Z,17.83
2023-10-10T09:18:34.913Z,16.72
2023-10-10T09:23:43.828Z,17.68
2023-10-10T09:28:56.463Z,16.79
2023-10-10T09:34:07.830Z,17.80
2023-10-10T09:39:12.580Z,18.27
2023-10-10T09:44:24.518Z,18.69
2023-10-10T09:49:41.284Z,18.21
2023-10-10T09:54:45.947Z,18.56
2023-10-10T09:59:54.411Z,18.77
2023-10-10T10:04:57.143Z,18.51
2023-10-10T10:10:18.164Z,18.37
2023-10-10T10:15:25.612Z,18.97
2023-10-10T10:20:50.188Z,19.47
2023-10-10T10:26:05.655Z,19.20
2023-10-10T10:31:17.474Z,19.87
2023-10-10T10:36:19.487Z,20.59
2023-10-10T10:41:41.266Z,18.83
2023-10-10T10:46:49.057Z,19.82
2023-10-10T10:52:13.825Z,19.14
2023-10-10T11:06:17.930Z,19.45
2023-10-10T11:11:41.609Z,19.63
2023-10-10T11:16:47.356Z,19.06
2023-10-10T11:21:50.118Z,19.64
2023-10-10T11:27:12.182Z,19.62
2023-10-10T11:32:15.643Z,20.18
2023-10-10T11:37:32.350Z,19.88
2023-10-10T11:42:35.218Z,19.89
2023-10-10T11:47:46.339Z,20.47
2023-10-10T11:52:58.583Z,20.37
2023-10-10T11:58:07.660Z,20.04
2023-10-10T12:03:35.266Z,19.78
2023-10-10T12:08:39.149Z,20.07
2023-10-10T12:13:40.879Z,20.43
2023-10-10T12:18:50.859Z,20.54
2023-10-10T12:24:00.448Z,20.44
2023-10-10T12:29:03.885Z,20.56
2023-10-10T12:34:09.244Z,20.58
2023-10-10T12:39:16.141Z,19.90
2023-10-10T12:44:18.273Z,21.22
2023-10-10T12:49:20.564Z,20.94
2023-10-10T12:54:22.919Z,21.57
2023-10-10T12:59:31.975Z,21.34
2023-10-10T13:04:39.138Z,20.95
2023-10-10T13:09:44.265Z,21.84
2023-10-10T13:14:51.878Z,20.90
2023-10-10T13:19:54.199Z,22.16
2023-10-10T13:24:55.949Z,21.44
2023-10-10T13:29:57.650Z,21.13
2023-10-10T13:35:01.861Z,21.48
2023-10-10T13:40:07.038Z,21.58
2023-10-10T13:45:13.166Z,21.53
2023-10-10T13:50:29.990Z,20.59
2023-10-10T13:55:35.457Z,21.16
2023-10-10T14:00:53.617Z,21.52
2023-10-10T14:06:09.403Z,21.60
2023-10-10T14:11:22.371Z,22.11
2023-10-10T14:16:24.966Z,22.24
2023-10-10T14:21:27.355Z,22.00
2023-10-10T14:26:32.280Z,22.37
2023-10-10T14:31:46.932Z,21.32
2023-10-10T14:36:52.677Z,20.58
2023-10-10T14:41:59.241Z,21.29
2023-10-10T14:47:05.086Z,21.15
2023-10-10T14:52:07.811Z,21.44
2023-10-10T14:57:24.736Z,22.19
2023-10-10T15:02:28.365Z,22.90
2023-10-10T15:07:30.189Z,22.63
2023-10-10T15:12:34.387Z,22.02
2023-10-10T15:17:36.113Z,22.25
2023-10-10T15:22:42.979Z,22.24
2023-10-10T15:27:44.679Z,21.70
2023-10-10T15:32:48.614Z,21.96
2023-10-10T15:37:50.904Z,21.84
2023-10-10T15:42:53.472Z,22.29
2023-10-10T15:47:55.796Z,22.26
2023-10-10T15:52:57.712Z,22.65
2023-10-10T15:57:59.334Z,21.99
2023-10-10T16:03:01.591Z,21.60
2023-10-10T16:08:09.476Z,21.42
2023-10-10T16:13:11.469Z,21.30
2023-10-10T16:18:13.211Z,20.13
2023-10-10T16:23:14.871Z,20.53
2023-10-10T16:28:16.567Z,20.81
2023-10-10T16:33:22.133Z,20.42
2023-10-10T16:38:24.059Z,20.38
2023-10-10T16:43:25.760Z,20.49
2023-10-10T16:48:27.511Z,20.54
2023-10-10T16:53:31.147Z,20.18
2023-10-10T16:58:32.777Z,20.78
2023-10-10T17:03:34.590Z,19.09
2023-10-10T17:08:37.582Z,19.85
2023-10-10T17:13:40.086Z,20.71
2023-10-10T17:18:46.348Z,20.63
2023-10-10T17:23:51.842Z,20.56
2023-10-10T17:28:55.479Z,20.84
2023-10-10T17:33:58.287Z,20.80
2023-10-10T17:39:01.884Z,21.07
2023-10-10T17:44:10.294Z,20.27
2023-10-10T17:49:13.153Z,20.39
2023-10-10T17:54:17.626Z,20.74
2023-10-10T17:59:20.763Z,20.24
2023-10-10T18:04:26.122Z,20.97
2023-10-10T18:09:33.259Z,20.54
2023-10-10T18:14:35.368Z,20.13
2023-10-10T18:19:41.488Z,19.72
2023-10-10T18:24:43.329Z,20.30
2023-10-10T18:29:45.189Z,20.30
2023-10-10T18:34:46.928Z,19.62
2023-10-10T18:39:48.556Z,19.49
2023-10-10T18:44:50.218Z,20.26
2023-10-10T18:49:51.957Z,20.11
2023-10-10T18:54:53.621Z,20.16
2023-10-10T18:59:55.523Z,19.74
2023-10-10T19:04:57.277Z,20.27
2023-10-10T19:10:03.498Z,20.13
2023-10-10T19:15:05.802Z,19.70
2023-10-10T19:20:08.190Z,19.18
2023-10-10T19:25:13.003Z,20.04
2023-10-10T19:30:17.584Z,19.62
2023-10-10T19:35:22.235Z,19.45
2023-10-10T19:40:29.461Z,19.80
2023-10-10T19:45:31.461Z,19.04
2023-10-10T19:50:39.318Z,18.81
2023-10-10T19:55:45.736Z,18.54
2023-10-10T20:00:47.887Z,18.25
2023-10-10T20:05:49.761Z,19.13
2023-10-10T20:10:51.998Z,17.90
2023-10-10T20:15:54.036Z,19.24
2023-10-10T20:20:56.045Z,18.08
2023-10-10T20:25:57.774Z,17.76
2023-10-10T20:30:59.437Z,17.65
2023-10-10T20:36:03.862Z,17.80
2023-10-10T20:41:12.464Z,18.36
2023-10-10T20:46:19.777Z,18.87
2023-10-10T20:51:26.029Z,18.62
2023-10-10T20:56:28.765Z,17.46
2023-10-10T21:01:31.191Z,18.59
2023-10-10T21:06:32.915Z,18.83
2023-10-10T21:11:34.928Z,18.93
2023-10-10T21:16:36.614Z,18.31
2023-10-10T21:21:38.238Z,17.81
2023-10-10T21:26:40.110Z,17.82
2023-10-10T21:31:42.602Z,17.15
2023-10-10T21:36:44.310Z,18.36
2023-10-10T21:41:46.714Z,18.15
2023-10-10T21:46:52.112Z,17.49
2023-10-10T21:51:54.570Z,17.64
2023-10-10T21:56:56.303Z,17.32
2023-10-10T22:01:58.000Z,17.53
2023-10-10T22:06:59.832Z,17.60
2023-10-10T22:12:01.507Z,15.68
2023-10-10T22:17:08.800Z,16.72
2023-10-10T22:22:11.282Z,16.94
2023-10-10T22:27:13.854Z,17.16
2023-10-10T22:32:16.509Z,17.77
2023-10-10T22:37:18.511Z,16.31
2023-10-10T22:42:21.120Z,17.59
2023-10-10T22:47:22.759Z,17.46
2023-10-10T22:52:24.378Z,16.59
2023-10-10T22:57:26.120Z,16.22
2023-10-10T23:02:32.364Z,16.53
2023-10-10T23:07:34.918Z,17.00
2023-10-10T23:12:37.499Z,16.35
2023-10-10T23:17:40.929Z,16.66
2023-10-10T23:22:43.348Z,16.40
2023-10-10T23:27:45.341Z,17.21
2023-10-10T23:32:48.200Z,17.43
2023-10-10T23:37:53.990Z,16.50
2023-10-10T23:42:55.655Z,16.66
2023-10-10T23:47:57.523Z,16.50
2023-10-10T23:53:03.298Z,16.37
2023-10-10T23:58:06.638Z,16.56
